sensor_id;sensor_type;location;lat;lon;timestamp;temperature;humidity
42833;DHT22;28479;51.478;5.692;2022-08-14T00:00:19;22.20;81.60
42833;DHT22;28479;51.478;5.692;2022-08-14T00:02:45;22.10;81.80
42833;DHT22;28479;51.478;5.692;2022-08-14T00:05:13;22.10;82.10
42833;DHT22;28479;51.478;5.692;2022-08-14T00:07:39;22.00;82.10
42833;DHT22;28479;51.478;5.692;2022-08-14T00:10:07;22.00;82.30
42833;DHT22;28479;51.478;5.692;2022-08-14T00:12:35;22.00;82.50
42833;DHT22;28479;51.478;5.692;2022-08-14T00:15:07;21.90;82.80
42833;DHT22;28479;51.478;5.692;2022-08-14T00:17:33;21.90;82.70
42833;DHT22;28479;51.478;5.692;2022-08-14T00:19:58;21.80;82.70
42833;DHT22;28479;51.478;5.692;2022-08-14T00:22:24;21.90;82.90
42833;DHT22;28479;51.478;5.692;2022-08-14T00:24:49;21.90;83.30
42833;DHT22;28479;51.478;5.692;2022-08-14T00:27:15;21.80;83.10
42833;DHT22;28479;51.478;5.692;2022-08-14T00:29:41;21.70;83.50
42833;DHT22;28479;51.478;5.692;2022-08-14T00:32:07;21.70;83.80
42833;DHT22;28479;51.478;5.692;2022-08-14T00:34:32;21.60;84.10
42833;DHT22;28479;51.478;5.692;2022-08-14T00:36:58;21.50;83.90
42833;DHT22;28479;51.478;5.692;2022-08-14T00:39:24;21.60;84.40
42833;DHT22;28479;51.478;5.692;2022-08-14T00:41:49;21.50;84.20
42833;DHT22;28479;51.478;5.692;2022-08-14T00:44:15;21.50;84.10
42833;DHT22;28479;51.478;5.692;2022-08-14T00:46:41;21.50;84.40
42833;DHT22;28479;51.478;5.692;2022-08-14T00:49:07;21.50;84.40
42833;DHT22;28479;51.478;5.692;2022-08-14T00:51:34;21.60;84.40
42833;DHT22;28479;51.478;5.692;2022-08-14T00:54:03;21.50;84.30
42833;DHT22;28479;51.478;5.692;2022-08-14T00:56:28;21.50;84.20
42833;DHT22;28479;51.478;5.692;2022-08-14T00:58:54;21.50;84.40
42833;DHT22;28479;51.478;5.692;2022-08-14T01:01:23;21.50;84.40
42833;DHT22;28479;51.478;5.692;2022-08-14T01:03:48;21.40;84.40
42833;DHT22;28479;51.478;5.692;2022-08-14T01:06:14;21.40;84.40
42833;DHT22;28479;51.478;5.692;2022-08-14T01:08:42;21.40;84.20
42833;DHT22;28479;51.478;5.692;2022-08-14T01:11:10;21.40;84.40
42833;DHT22;28479;51.478;5.692;2022-08-14T01:13:41;21.40;84.40
42833;DHT22;28479;51.478;5.692;2022-08-14T01:16:13;21.30;84.30
42833;DHT22;28479;51.478;5.692;2022-08-14T01:18:40;21.30;84.40
42833;DHT22;28479;51.478;5.692;2022-08-14T01:23:58;21.30;84.10
42833;DHT22;28479;51.478;5.692;2022-08-14T01:26:25;21.30;83.70
42833;DHT22;28479;51.478;5.692;2022-08-14T01:28:53;21.30;83.70
42833;DHT22;28479;51.478;5.692;2022-08-14T01:31:32;21.30;83.60
42833;DHT22;28479;51.478;5.692;2022-08-14T01:34:00;21.30;83.50
42833;DHT22;28479;51.478;5.692;2022-08-14T01:36:27;21.30;83.40
42833;DHT22;28479;51.478;5.692;2022-08-14T01:38:55;21.30;83.20
42833;DHT22;28479;51.478;5.692;2022-08-14T01:41:25;21.30;83.50
42833;DHT22;28479;51.478;5.692;2022-08-14T01:44:00;21.30;83.40
42833;DHT22;28479;51.478;5.692;2022-08-14T01:46:28;21.30;83.40
42833;DHT22;28479;51.478;5.692;2022-08-14T01:48:54;21.30;84.10
42833;DHT22;28479;51.478;5.692;2022-08-14T01:51:22;21.30;83.70
42833;DHT22;28479;51.478;5.692;2022-08-14T01:53:54;21.30;83.80
42833;DHT22;28479;51.478;5.692;2022-08-14T01:56:22;21.30;83.70
42833;DHT22;28479;51.478;5.692;2022-08-14T01:58:57;21.30;83.90
42833;DHT22;28479;51.478;5.692;2022-08-14T02:01:22;21.30;84.00
42833;DHT22;28479;51.478;5.692;2022-08-14T02:03:48;21.30;83.80
42833;DHT22;28479;51.478;5.692;2022-08-14T02:06:13;21.30;84.10
42833;DHT22;28479;51.478;5.692;2022-08-14T02:08:40;21.20;84.10
42833;DHT22;28479;51.478;5.692;2022-08-14T02:11:09;21.20;84.30
42833;DHT22;28479;51.478;5.692;2022-08-14T02:13:56;21.20;84.40
42833;DHT22;28479;51.478;5.692;2022-08-14T02:16:27;21.20;84.70
42833;DHT22;28479;51.478;5.692;2022-08-14T02:18:56;21.10;84.70
42833;DHT22;28479;51.478;5.692;2022-08-14T02:21:22;21.10;84.90
42833;DHT22;28479;51.478;5.692;2022-08-14T02:23:49;21.10;84.90
42833;DHT22;28479;51.478;5.692;2022-08-14T02:26:24;21.00;85.20
42833;DHT22;28479;51.478;5.692;2022-08-14T02:28:53;20.90;85.50
42833;DHT22;28479;51.478;5.692;2022-08-14T02:31:20;20.80;85.70
42833;DHT22;28479;51.478;5.692;2022-08-14T02:33:46;20.70;86.10
42833;DHT22;28479;51.478;5.692;2022-08-14T02:36:14;20.60;86.30
42833;DHT22;28479;51.478;5.692;2022-08-14T02:38:41;20.50;86.60
42833;DHT22;28479;51.478;5.692;2022-08-14T02:41:09;20.40;87.20
42833;DHT22;28479;51.478;5.692;2022-08-14T02:43:35;20.30;87.60
42833;DHT22;28479;51.478;5.692;2022-08-14T02:46:07;20.30;87.90
42833;DHT22;28479;51.478;5.692;2022-08-14T02:48:36;20.20;87.90
42833;DHT22;28479;51.478;5.692;2022-08-14T02:51:06;20.10;87.90
42833;DHT22;28479;51.478;5.692;2022-08-14T02:53:32;20.10;88.70
42833;DHT22;28479;51.478;5.692;2022-08-14T02:55:59;20.10;88.30
42833;DHT22;28479;51.478;5.692;2022-08-14T02:58:26;19.90;88.90
42833;DHT22;28479;51.478;5.692;2022-08-14T03:00:52;19.90;89.60
42833;DHT22;28479;51.478;5.692;2022-08-14T03:03:18;19.90;89.90
42833;DHT22;28479;51.478;5.692;2022-08-14T03:05:50;19.90;90.00
42833;DHT22;28479;51.478;5.692;2022-08-14T03:08:16;19.80;90.00
42833;DHT22;28479;51.478;5.692;2022-08-14T03:10:43;19.70;90.20
42833;DHT22;28479;51.478;5.692;2022-08-14T03:13:08;19.70;90.30
42833;DHT22;28479;51.478;5.692;2022-08-14T03:15:35;19.70;90.40
42833;DHT22;28479;51.478;5.692;2022-08-14T03:18:18;19.80;90.40
42833;DHT22;28479;51.478;5.692;2022-08-14T03:20:46;19.80;90.60
42833;DHT22;28479;51.478;5.692;2022-08-14T03:23:12;19.70;90.80
42833;DHT22;28479;51.478;5.692;2022-08-14T03:25:39;19.70;90.70
42833;DHT22;28479;51.478;5.692;2022-08-14T03:28:07;19.70;90.90
42833;DHT22;28479;51.478;5.692;2022-08-14T03:30:33;19.60;90.90
42833;DHT22;28479;51.478;5.692;2022-08-14T03:32:58;19.60;91.00
42833;DHT22;28479;51.478;5.692;2022-08-14T03:35:25;19.50;91.00
42833;DHT22;28479;51.478;5.692;2022-08-14T03:37:51;19.50;91.20
42833;DHT22;28479;51.478;5.692;2022-08-14T03:40:18;19.40;91.10
42833;DHT22;28479;51.478;5.692;2022-08-14T03:42:45;19.40;91.20
42833;DHT22;28479;51.478;5.692;2022-08-14T03:45:11;19.40;91.20
42833;DHT22;28479;51.478;5.692;2022-08-14T03:47:36;19.40;91.60
42833;DHT22;28479;51.478;5.692;2022-08-14T03:50:06;19.40;91.70
42833;DHT22;28479;51.478;5.692;2022-08-14T03:52:34;19.40;91.40
42833;DHT22;28479;51.478;5.692;2022-08-14T03:55:01;19.40;91.70
42833;DHT22;28479;51.478;5.692;2022-08-14T03:57:28;19.40;91.80
42833;DHT22;28479;51.478;5.692;2022-08-14T03:59:57;19.40;91.90
42833;DHT22;28479;51.478;5.692;2022-08-14T04:02:22;19.40;92.00
42833;DHT22;28479;51.478;5.692;2022-08-14T04:04:48;19.30;92.00
42833;DHT22;28479;51.478;5.692;2022-08-14T04:07:14;19.30;91.90
42833;DHT22;28479;51.478;5.692;2022-08-14T04:09:41;19.30;92.10
42833;DHT22;28479;51.478;5.692;2022-08-14T04:12:07;19.30;92.20
42833;DHT22;28479;51.478;5.692;2022-08-14T04:14:32;19.30;92.40
42833;DHT22;28479;51.478;5.692;2022-08-14T04:16:58;19.30;92.40
42833;DHT22;28479;51.478;5.692;2022-08-14T04:19:24;19.30;92.40
42833;DHT22;28479;51.478;5.692;2022-08-14T04:21:49;19.30;92.50
42833;DHT22;28479;51.478;5.692;2022-08-14T04:24:15;19.30;92.50
42833;DHT22;28479;51.478;5.692;2022-08-14T04:26:41;19.30;92.70
42833;DHT22;28479;51.478;5.692;2022-08-14T04:29:10;19.20;92.70
42833;DHT22;28479;51.478;5.692;2022-08-14T04:31:35;19.20;93.00
42833;DHT22;28479;51.478;5.692;2022-08-14T04:34:02;19.20;93.10
42833;DHT22;28479;51.478;5.692;2022-08-14T04:36:30;19.10;93.20
42833;DHT22;28479;51.478;5.692;2022-08-14T04:38:55;19.10;93.40
42833;DHT22;28479;51.478;5.692;2022-08-14T04:41:39;19.00;93.40
42833;DHT22;28479;51.478;5.692;2022-08-14T04:44:23;19.00;93.60
42833;DHT22;28479;51.478;5.692;2022-08-14T04:46:48;19.00;93.80
42833;DHT22;28479;51.478;5.692;2022-08-14T04:49:46;19.00;93.90
42833;DHT22;28479;51.478;5.692;2022-08-14T04:52:12;19.00;94.20
42833;DHT22;28479;51.478;5.692;2022-08-14T04:54:37;18.90;94.30
42833;DHT22;28479;51.478;5.692;2022-08-14T04:57:03;19.00;94.40
42833;DHT22;28479;51.478;5.692;2022-08-14T04:59:29;19.00;94.40
42833;DHT22;28479;51.478;5.692;2022-08-14T05:01:54;19.00;94.50
42833;DHT22;28479;51.478;5.692;2022-08-14T05:04:22;19.00;94.60
42833;DHT22;28479;51.478;5.692;2022-08-14T05:06:51;19.00;94.60
42833;DHT22;28479;51.478;5.692;2022-08-14T05:09:16;19.00;94.90
42833;DHT22;28479;51.478;5.692;2022-08-14T05:11:42;19.00;95.10
42833;DHT22;28479;51.478;5.692;2022-08-14T05:14:08;19.00;95.20
42833;DHT22;28479;51.478;5.692;2022-08-14T05:16:34;19.00;95.40
42833;DHT22;28479;51.478;5.692;2022-08-14T05:18:59;19.00;95.90
42833;DHT22;28479;51.478;5.692;2022-08-14T05:21:25;19.10;96.00
42833;DHT22;28479;51.478;5.692;2022-08-14T05:23:53;19.20;96.20
42833;DHT22;28479;51.478;5.692;2022-08-14T05:26:19;19.20;96.30
42833;DHT22;28479;51.478;5.692;2022-08-14T05:28:46;19.30;96.50
42833;DHT22;28479;51.478;5.692;2022-08-14T05:31:14;19.30;96.60
42833;DHT22;28479;51.478;5.692;2022-08-14T05:33:44;19.40;96.80
42833;DHT22;28479;51.478;5.692;2022-08-14T05:36:11;19.50;96.60
42833;DHT22;28479;51.478;5.692;2022-08-14T05:38:42;19.60;96.50
42833;DHT22;28479;51.478;5.692;2022-08-14T05:41:19;19.70;96.60
42833;DHT22;28479;51.478;5.692;2022-08-14T05:43:46;19.80;96.50
42833;DHT22;28479;51.478;5.692;2022-08-14T05:46:13;19.90;96.50
42833;DHT22;28479;51.478;5.692;2022-08-14T05:48:57;20.00;96.70
42833;DHT22;28479;51.478;5.692;2022-08-14T05:51:25;20.10;96.60
42833;DHT22;28479;51.478;5.692;2022-08-14T05:53:51;20.20;96.40
42833;DHT22;28479;51.478;5.692;2022-08-14T05:56:17;20.20;96.30
42833;DHT22;28479;51.478;5.692;2022-08-14T05:58:43;20.30;96.70
42833;DHT22;28479;51.478;5.692;2022-08-14T06:01:09;20.30;96.50
42833;DHT22;28479;51.478;5.692;2022-08-14T06:03:35;20.40;96.80
42833;DHT22;28479;51.478;5.692;2022-08-14T06:06:01;20.50;96.80
42833;DHT22;28479;51.478;5.692;2022-08-14T06:08:29;20.60;96.70
42833;DHT22;28479;51.478;5.692;2022-08-14T06:10:57;20.60;96.90
42833;DHT22;28479;51.478;5.692;2022-08-14T06:13:29;20.70;96.70
42833;DHT22;28479;51.478;5.692;2022-08-14T06:15:58;20.80;96.60
42833;DHT22;28479;51.478;5.692;2022-08-14T06:18:24;21.00;96.70
42833;DHT22;28479;51.478;5.692;2022-08-14T06:20:50;21.00;96.40
42833;DHT22;28479;51.478;5.692;2022-08-14T06:23:15;21.20;96.30
42833;DHT22;28479;51.478;5.692;2022-08-14T06:25:41;21.30;96.20
42833;DHT22;28479;51.478;5.692;2022-08-14T06:28:15;21.40;96.00
42833;DHT22;28479;51.478;5.692;2022-08-14T06:30:41;21.40;96.00
42833;DHT22;28479;51.478;5.692;2022-08-14T06:33:06;21.60;95.70
42833;DHT22;28479;51.478;5.692;2022-08-14T06:35:32;21.60;95.60
42833;DHT22;28479;51.478;5.692;2022-08-14T06:37:59;21.70;95.30
42833;DHT22;28479;51.478;5.692;2022-08-14T06:40:33;21.80;95.20
42833;DHT22;28479;51.478;5.692;2022-08-14T06:43:04;21.90;95.10
42833;DHT22;28479;51.478;5.692;2022-08-14T06:45:31;22.10;95.00
42833;DHT22;28479;51.478;5.692;2022-08-14T06:47:57;22.10;95.10
42833;DHT22;28479;51.478;5.692;2022-08-14T06:50:23;22.20;95.00
42833;DHT22;28479;51.478;5.692;2022-08-14T06:52:51;22.30;95.10
42833;DHT22;28479;51.478;5.692;2022-08-14T06:55:17;22.30;95.00
42833;DHT22;28479;51.478;5.692;2022-08-14T06:57:48;22.50;95.10
42833;DHT22;28479;51.478;5.692;2022-08-14T07:02:44;22.60;94.60
42833;DHT22;28479;51.478;5.692;2022-08-14T07:05:28;22.60;94.20
42833;DHT22;28479;51.478;5.692;2022-08-14T07:10:44;22.80;94.30
42833;DHT22;28479;51.478;5.692;2022-08-14T07:13:11;22.80;94.20
42833;DHT22;28479;51.478;5.692;2022-08-14T07:15:37;22.80;94.30
42833;DHT22;28479;51.478;5.692;2022-08-14T07:18:03;22.90;94.20
42833;DHT22;28479;51.478;5.692;2022-08-14T07:20:30;23.00;94.30
42833;DHT22;28479;51.478;5.692;2022-08-14T07:22:55;23.10;94.20
42833;DHT22;28479;51.478;5.692;2022-08-14T07:25:26;23.20;94.30
42833;DHT22;28479;51.478;5.692;2022-08-14T07:27:53;23.20;94.10
42833;DHT22;28479;51.478;5.692;2022-08-14T07:30:20;23.30;94.10
42833;DHT22;28479;51.478;5.692;2022-08-14T07:32:46;23.40;94.00
42833;DHT22;28479;51.478;5.692;2022-08-14T07:35:12;23.50;94.20
42833;DHT22;28479;51.478;5.692;2022-08-14T07:37:38;23.60;94.10
42833;DHT22;28479;51.478;5.692;2022-08-14T07:40:04;23.60;94.10
42833;DHT22;28479;51.478;5.692;2022-08-14T07:42:30;23.70;94.20
42833;DHT22;28479;51.478;5.692;2022-08-14T07:44:57;23.80;93.90
42833;DHT22;28479;51.478;5.692;2022-08-14T07:47:23;23.90;93.50
42833;DHT22;28479;51.478;5.692;2022-08-14T07:50:02;24.00;93.30
42833;DHT22;28479;51.478;5.692;2022-08-14T07:52:28;24.10;93.40
42833;DHT22;28479;51.478;5.692;2022-08-14T07:54:55;24.20;93.50
42833;DHT22;28479;51.478;5.692;2022-08-14T07:57:21;24.20;93.30
42833;DHT22;28479;51.478;5.692;2022-08-14T07:59:47;24.30;93.10
42833;DHT22;28479;51.478;5.692;2022-08-14T08:02:14;24.40;92.80
42833;DHT22;28479;51.478;5.692;2022-08-14T08:04:44;24.50;93.00
42833;DHT22;28479;51.478;5.692;2022-08-14T08:07:11;24.50;93.00
42833;DHT22;28479;51.478;5.692;2022-08-14T08:09:43;24.50;92.90
42833;DHT22;28479;51.478;5.692;2022-08-14T08:12:11;24.50;92.90
42833;DHT22;28479;51.478;5.692;2022-08-14T08:14:40;24.60;92.70
42833;DHT22;28479;51.478;5.692;2022-08-14T08:17:08;24.70;92.80
42833;DHT22;28479;51.478;5.692;2022-08-14T08:19:34;24.80;92.80
42833;DHT22;28479;51.478;5.692;2022-08-14T08:21:59;24.90;92.70
42833;DHT22;28479;51.478;5.692;2022-08-14T08:24:28;25.00;92.80
42833;DHT22;28479;51.478;5.692;2022-08-14T08:26:53;25.10;92.50
42833;DHT22;28479;51.478;5.692;2022-08-14T08:29:20;25.20;91.90
42833;DHT22;28479;51.478;5.692;2022-08-14T08:31:50;25.30;92.00
42833;DHT22;28479;51.478;5.692;2022-08-14T08:34:17;25.40;92.00
42833;DHT22;28479;51.478;5.692;2022-08-14T08:36:43;25.50;91.90
42833;DHT22;28479;51.478;5.692;2022-08-14T08:39:10;25.60;92.30
42833;DHT22;28479;51.478;5.692;2022-08-14T08:41:43;25.70;91.90
42833;DHT22;28479;51.478;5.692;2022-08-14T08:44:10;25.70;91.80
42833;DHT22;28479;51.478;5.692;2022-08-14T08:46:35;25.70;91.90
42833;DHT22;28479;51.478;5.692;2022-08-14T08:49:01;25.70;91.90
42833;DHT22;28479;51.478;5.692;2022-08-14T08:51:31;25.80;91.50
42833;DHT22;28479;51.478;5.692;2022-08-14T08:54:02;25.90;91.20
42833;DHT22;28479;51.478;5.692;2022-08-14T08:56:43;25.90;91.00
42833;DHT22;28479;51.478;5.692;2022-08-14T08:59:29;26.00;90.90
42833;DHT22;28479;51.478;5.692;2022-08-14T09:02:03;26.10;90.60
42833;DHT22;28479;51.478;5.692;2022-08-14T09:04:40;26.10;90.00
42833;DHT22;28479;51.478;5.692;2022-08-14T09:07:07;26.20;90.60
42833;DHT22;28479;51.478;5.692;2022-08-14T09:09:34;26.30;90.60
42833;DHT22;28479;51.478;5.692;2022-08-14T09:12:16;26.30;90.50
42833;DHT22;28479;51.478;5.692;2022-08-14T09:14:42;26.50;90.60
42833;DHT22;28479;51.478;5.692;2022-08-14T09:17:20;26.70;90.50
42833;DHT22;28479;51.478;5.692;2022-08-14T09:19:47;26.90;90.30
42833;DHT22;28479;51.478;5.692;2022-08-14T09:22:12;27.00;89.70
42833;DHT22;28479;51.478;5.692;2022-08-14T09:24:39;27.00;90.00
42833;DHT22;28479;51.478;5.692;2022-08-14T09:27:05;27.00;89.70
42833;DHT22;28479;51.478;5.692;2022-08-14T09:29:31;27.10;89.90
42833;DHT22;28479;51.478;5.692;2022-08-14T09:31:59;27.20;88.80
42833;DHT22;28479;51.478;5.692;2022-08-14T09:35:03;27.40;88.70
42833;DHT22;28479;51.478;5.692;2022-08-14T09:40:40;27.60;89.20
42833;DHT22;28479;51.478;5.692;2022-08-14T09:46:07;27.70;88.90
42833;DHT22;28479;51.478;5.692;2022-08-14T09:48:33;27.80;85.40
42833;DHT22;28479;51.478;5.692;2022-08-14T09:50:59;27.90;85.80
42833;DHT22;28479;51.478;5.692;2022-08-14T09:53:41;28.20;85.70
42833;DHT22;28479;51.478;5.692;2022-08-14T09:56:09;28.30;85.50
42833;DHT22;28479;51.478;5.692;2022-08-14T09:58:43;28.30;84.20
42833;DHT22;28479;51.478;5.692;2022-08-14T10:01:14;28.30;84.20
42833;DHT22;28479;51.478;5.692;2022-08-14T10:03:54;28.30;83.40
42833;DHT22;28479;51.478;5.692;2022-08-14T10:06:27;28.40;84.10
42833;DHT22;28479;51.478;5.692;2022-08-14T10:09:13;28.60;84.50
42833;DHT22;28479;51.478;5.692;2022-08-14T10:12:06;28.80;84.00
42833;DHT22;28479;51.478;5.692;2022-08-14T10:14:33;28.90;84.60
42833;DHT22;28479;51.478;5.692;2022-08-14T10:16:59;28.90;85.10
42833;DHT22;28479;51.478;5.692;2022-08-14T10:19:27;28.90;85.80
42833;DHT22;28479;51.478;5.692;2022-08-14T10:22:12;29.00;86.00
42833;DHT22;28479;51.478;5.692;2022-08-14T10:24:39;28.90;86.10
42833;DHT22;28479;51.478;5.692;2022-08-14T10:27:25;28.80;85.10
42833;DHT22;28479;51.478;5.692;2022-08-14T10:29:52;29.00;85.80
42833;DHT22;28479;51.478;5.692;2022-08-14T10:32:19;29.00;84.70
42833;DHT22;28479;51.478;5.692;2022-08-14T10:34:48;29.10;84.80
42833;DHT22;28479;51.478;5.692;2022-08-14T10:37:16;29.30;84.40
42833;DHT22;28479;51.478;5.692;2022-08-14T10:39:44;29.30;83.30
42833;DHT22;28479;51.478;5.692;2022-08-14T10:42:12;29.40;82.70
42833;DHT22;28479;51.478;5.692;2022-08-14T10:44:41;29.50;83.00
42833;DHT22;28479;51.478;5.692;2022-08-14T10:47:10;29.60;82.40
42833;DHT22;28479;51.478;5.692;2022-08-14T10:49:40;29.60;82.20
42833;DHT22;28479;51.478;5.692;2022-08-14T10:52:28;29.60;82.40
42833;DHT22;28479;51.478;5.692;2022-08-14T10:55:11;29.90;82.50
42833;DHT22;28479;51.478;5.692;2022-08-14T10:57:53;29.90;81.60
42833;DHT22;28479;51.478;5.692;2022-08-14T11:00:24;29.90;80.90
42833;DHT22;28479;51.478;5.692;2022-08-14T11:02:58;30.00;81.60
42833;DHT22;28479;51.478;5.692;2022-08-14T11:05:50;29.90;81.80
42833;DHT22;28479;51.478;5.692;2022-08-14T11:08:17;30.00;81.70
42833;DHT22;28479;51.478;5.692;2022-08-14T11:10:55;30.10;80.30
42833;DHT22;28479;51.478;5.692;2022-08-14T11:13:29;30.20;79.10
42833;DHT22;28479;51.478;5.692;2022-08-14T11:16:02;30.30;79.50
42833;DHT22;28479;51.478;5.692;2022-08-14T11:18:31;30.60;78.00
42833;DHT22;28479;51.478;5.692;2022-08-14T11:20:58;30.60;77.70
42833;DHT22;28479;51.478;5.692;2022-08-14T11:23:29;30.70;78.50
42833;DHT22;28479;51.478;5.692;2022-08-14T11:25:57;30.90;78.20
42833;DHT22;28479;51.478;5.692;2022-08-14T11:28:24;31.20;77.90
42833;DHT22;28479;51.478;5.692;2022-08-14T11:30:51;31.30;77.60
42833;DHT22;28479;51.478;5.692;2022-08-14T11:33:28;31.30;77.60
42833;DHT22;28479;51.478;5.692;2022-08-14T11:35:56;31.50;76.50
42833;DHT22;28479;51.478;5.692;2022-08-14T11:38:23;31.20;75.40
42833;DHT22;28479;51.478;5.692;2022-08-14T11:40:50;30.90;75.70
42833;DHT22;28479;51.478;5.692;2022-08-14T11:43:15;30.80;75.20
42833;DHT22;28479;51.478;5.692;2022-08-14T11:45:45;31.10;74.40
42833;DHT22;28479;51.478;5.692;2022-08-14T11:48:20;31.60;73.80
42833;DHT22;28479;51.478;5.692;2022-08-14T11:50:47;31.90;73.50
42833;DHT22;28479;51.478;5.692;2022-08-14T11:53:27;32.10;73.70
42833;DHT22;28479;51.478;5.692;2022-08-14T11:56:01;32.20;73.60
42833;DHT22;28479;51.478;5.692;2022-08-14T11:58:34;32.10;71.90
42833;DHT22;28479;51.478;5.692;2022-08-14T12:01:02;32.00;71.80
42833;DHT22;28479;51.478;5.692;2022-08-14T12:03:39;31.70;71.00
42833;DHT22;28479;51.478;5.692;2022-08-14T12:08:34;31.10;71.40
42833;DHT22;28479;51.478;5.692;2022-08-14T12:11:00;31.30;73.10
42833;DHT22;28479;51.478;5.692;2022-08-14T12:13:28;31.40;72.60
42833;DHT22;28479;51.478;5.692;2022-08-14T12:16:02;31.20;71.90
42833;DHT22;28479;51.478;5.692;2022-08-14T12:18:40;31.30;72.50
42833;DHT22;28479;51.478;5.692;2022-08-14T12:21:24;31.40;72.20
42833;DHT22;28479;51.478;5.692;2022-08-14T12:24:25;31.80;72.40
42833;DHT22;28479;51.478;5.692;2022-08-14T12:26:55;32.30;71.40
42833;DHT22;28479;51.478;5.692;2022-08-14T12:29:20;32.50;70.00
42833;DHT22;28479;51.478;5.692;2022-08-14T12:31:57;32.60;69.00
42833;DHT22;28479;51.478;5.692;2022-08-14T12:34:32;32.70;67.40
42833;DHT22;28479;51.478;5.692;2022-08-14T12:37:03;32.40;66.60
42833;DHT22;28479;51.478;5.692;2022-08-14T12:39:30;32.30;67.30
42833;DHT22;28479;51.478;5.692;2022-08-14T12:41:57;32.40;67.10
42833;DHT22;28479;51.478;5.692;2022-08-14T12:44:33;32.60;67.70
42833;DHT22;28479;51.478;5.692;2022-08-14T12:49:53;32.70;67.10
42833;DHT22;28479;51.478;5.692;2022-08-14T12:52:38;32.70;67.50
42833;DHT22;28479;51.478;5.692;2022-08-14T12:55:14;32.70;68.30
42833;DHT22;28479;51.478;5.692;2022-08-14T12:57:46;32.70;67.50
42833;DHT22;28479;51.478;5.692;2022-08-14T13:00:17;32.70;68.40
42833;DHT22;28479;51.478;5.692;2022-08-14T13:02:44;32.30;68.60
42833;DHT22;28479;51.478;5.692;2022-08-14T13:05:12;32.00;69.80
42833;DHT22;28479;51.478;5.692;2022-08-14T13:07:39;32.00;69.60
42833;DHT22;28479;51.478;5.692;2022-08-14T13:10:10;32.00;69.80
42833;DHT22;28479;51.478;5.692;2022-08-14T13:12:38;32.00;69.80
42833;DHT22;28479;51.478;5.692;2022-08-14T13:15:09;32.30;69.40
42833;DHT22;28479;51.478;5.692;2022-08-14T13:17:41;32.90;69.00
42833;DHT22;28479;51.478;5.692;2022-08-14T13:20:07;33.00;68.00
42833;DHT22;28479;51.478;5.692;2022-08-14T13:22:36;33.00;67.60
42833;DHT22;28479;51.478;5.692;2022-08-14T13:25:03;33.20;67.10
42833;DHT22;28479;51.478;5.692;2022-08-14T13:27:31;33.40;66.80
42833;DHT22;28479;51.478;5.692;2022-08-14T13:29:58;32.80;66.90
42833;DHT22;28479;51.478;5.692;2022-08-14T13:32:26;32.60;67.40
42833;DHT22;28479;51.478;5.692;2022-08-14T13:34:53;32.40;67.80
42833;DHT22;28479;51.478;5.692;2022-08-14T13:37:19;32.70;67.20
42833;DHT22;28479;51.478;5.692;2022-08-14T13:39:50;33.00;67.10
42833;DHT22;28479;51.478;5.692;2022-08-14T13:42:20;33.10;67.60
42833;DHT22;28479;51.478;5.692;2022-08-14T13:44:51;33.30;67.30
42833;DHT22;28479;51.478;5.692;2022-08-14T13:47:26;33.30;66.90
42833;DHT22;28479;51.478;5.692;2022-08-14T13:49:59;33.20;66.80
42833;DHT22;28479;51.478;5.692;2022-08-14T13:52:32;33.20;66.10
42833;DHT22;28479;51.478;5.692;2022-08-14T13:55:03;33.20;66.70
42833;DHT22;28479;51.478;5.692;2022-08-14T13:57:31;33.50;66.00
42833;DHT22;28479;51.478;5.692;2022-08-14T14:00:04;33.70;64.50
42833;DHT22;28479;51.478;5.692;2022-08-14T14:02:40;33.80;64.30
42833;DHT22;28479;51.478;5.692;2022-08-14T14:05:07;33.90;64.50
42833;DHT22;28479;51.478;5.692;2022-08-14T14:07:35;34.20;64.40
42833;DHT22;28479;51.478;5.692;2022-08-14T14:10:05;34.40;63.90
42833;DHT22;28479;51.478;5.692;2022-08-14T14:12:33;34.30;63.50
42833;DHT22;28479;51.478;5.692;2022-08-14T14:15:06;34.20;63.90
42833;DHT22;28479;51.478;5.692;2022-08-14T14:17:34;34.40;64.00
42833;DHT22;28479;51.478;5.692;2022-08-14T14:20:00;34.40;63.70
42833;DHT22;28479;51.478;5.692;2022-08-14T14:22:26;34.40;63.70
42833;DHT22;28479;51.478;5.692;2022-08-14T14:24:52;34.70;63.60
42833;DHT22;28479;51.478;5.692;2022-08-14T14:27:19;35.00;63.10
42833;DHT22;28479;51.478;5.692;2022-08-14T14:29:47;35.10;63.40
42833;DHT22;28479;51.478;5.692;2022-08-14T14:32:15;35.10;63.50
42833;DHT22;28479;51.478;5.692;2022-08-14T14:34:42;35.40;64.70
42833;DHT22;28479;51.478;5.692;2022-08-14T14:37:12;35.50;63.10
42833;DHT22;28479;51.478;5.692;2022-08-14T14:39:38;35.50;62.20
42833;DHT22;28479;51.478;5.692;2022-08-14T14:42:05;35.00;62.50
42833;DHT22;28479;51.478;5.692;2022-08-14T14:44:37;34.50;64.40
42833;DHT22;28479;51.478;5.692;2022-08-14T14:47:10;34.50;62.50
42833;DHT22;28479;51.478;5.692;2022-08-14T14:49:37;34.30;63.50
42833;DHT22;28479;51.478;5.692;2022-08-14T14:52:05;34.20;62.90
42833;DHT22;28479;51.478;5.692;2022-08-14T14:54:33;34.30;64.10
42833;DHT22;28479;51.478;5.692;2022-08-14T14:57:01;34.50;63.30
42833;DHT22;28479;51.478;5.692;2022-08-14T14:59:30;34.20;62.50
42833;DHT22;28479;51.478;5.692;2022-08-14T15:02:05;33.90;63.90
42833;DHT22;28479;51.478;5.692;2022-08-14T15:04:33;34.20;63.50
42833;DHT22;28479;51.478;5.692;2022-08-14T15:06:59;34.10;64.20
42833;DHT22;28479;51.478;5.692;2022-08-14T15:09:25;34.00;62.90
42833;DHT22;28479;51.478;5.692;2022-08-14T15:11:51;33.90;62.90
42833;DHT22;28479;51.478;5.692;2022-08-14T15:14:17;33.80;62.90
42833;DHT22;28479;51.478;5.692;2022-08-14T15:16:45;33.70;62.90
42833;DHT22;28479;51.478;5.692;2022-08-14T15:19:10;33.60;62.80
42833;DHT22;28479;51.478;5.692;2022-08-14T15:21:36;33.60;63.20
42833;DHT22;28479;51.478;5.692;2022-08-14T15:24:02;33.70;63.20
42833;DHT22;28479;51.478;5.692;2022-08-14T15:26:28;33.90;63.00
42833;DHT22;28479;51.478;5.692;2022-08-14T15:28:54;33.90;62.80
42833;DHT22;28479;51.478;5.692;2022-08-14T15:31:19;34.10;62.80
42833;DHT22;28479;51.478;5.692;2022-08-14T15:33:45;34.20;62.80
42833;DHT22;28479;51.478;5.692;2022-08-14T15:36:29;34.20;62.70
42833;DHT22;28479;51.478;5.692;2022-08-14T15:38:56;33.90;63.20
42833;DHT22;28479;51.478;5.692;2022-08-14T15:41:23;33.90;63.50
42833;DHT22;28479;51.478;5.692;2022-08-14T15:43:49;33.70;63.10
42833;DHT22;28479;51.478;5.692;2022-08-14T15:46:15;33.50;62.90
42833;DHT22;28479;51.478;5.692;2022-08-14T15:48:41;33.20;63.00
42833;DHT22;28479;51.478;5.692;2022-08-14T15:51:08;33.20;64.00
42833;DHT22;28479;51.478;5.692;2022-08-14T15:53:34;33.40;63.80
42833;DHT22;28479;51.478;5.692;2022-08-14T15:55:59;33.20;63.30
42833;DHT22;28479;51.478;5.692;2022-08-14T15:58:25;33.30;65.40
42833;DHT22;28479;51.478;5.692;2022-08-14T16:00:53;33.70;63.10